sensor_id;sensor_type;location;lat;lon;timestamp;temperature;humidity
27114;DHT22;14648;49.730;8.614;2024-02-23T00:01:17;9.60;63.60
27114;DHT22;14648;49.730;8.614;2024-02-23T00:03:43;9.60;63.60
27114;DHT22;14648;49.730;8.614;2024-02-23T00:06:11;9.60;63.60
27114;DHT22;14648;49.730;8.614;2024-02-23T00:08:37;9.50;63.60
27114;DHT22;14648;49.730;8.614;2024-02-23T00:11:06;9.50;63.60
27114;DHT22;14648;49.730;8.614;2024-02-23T00:13:32;9.50;63.60
27114;DHT22;14648;49.730;8.614;2024-02-23T00:15:58;9.50;63.60
27114;DHT22;14648;49.730;8.614;2024-02-23T00:18:24;9.50;63.60
27114;DHT22;14648;49.730;8.614;2024-02-23T00:20:50;9.50;63.50
27114;DHT22;14648;49.730;8.614;2024-02-23T00:23:15;9.40;63.30
27114;DHT22;14648;49.730;8.614;2024-02-23T00:25:42;9.40;63.20
27114;DHT22;14648;49.730;8.614;2024-02-23T00:28:08;9.40;63.20
27114;DHT22;14648;49.730;8.614;2024-02-23T00:30:34;9.40;63.20
27114;DHT22;14648;49.730;8.614;2024-02-23T00:33:01;9.40;63.20
27114;DHT22;14648;49.730;8.614;2024-02-23T00:35:27;9.30;63.20
27114;DHT22;14648;49.730;8.614;2024-02-23T00:37:53;9.30;63.10
27114;DHT22;14648;49.730;8.614;2024-02-23T00:40:19;9.30;63.00
27114;DHT22;14648;49.730;8.614;2024-02-23T00:42:46;9.20;62.90
27114;DHT22;14648;49.730;8.614;2024-02-23T00:45:12;9.10;62.90
27114;DHT22;14648;49.730;8.614;2024-02-23T00:47:37;9.10;63.00
27114;DHT22;14648;49.730;8.614;2024-02-23T00:50:04;9.00;62.90
27114;DHT22;14648;49.730;8.614;2024-02-23T00:52:30;9.00;62.90
27114;DHT22;14648;49.730;8.614;2024-02-23T00:54:58;8.90;62.90
27114;DHT22;14648;49.730;8.614;2024-02-23T00:57:24;8.80;62.90
27114;DHT22;14648;49.730;8.614;2024-02-23T00:59:58;8.70;63.00
27114;DHT22;14648;49.730;8.614;2024-02-23T01:02:24;8.70;63.00
27114;DHT22;14648;49.730;8.614;2024-02-23T01:04:50;8.60;62.90
27114;DHT22;14648;49.730;8.614;2024-02-23T01:07:16;8.60;63.00
27114;DHT22;14648;49.730;8.614;2024-02-23T01:09:42;8.60;63.10
27114;DHT22;14648;49.730;8.614;2024-02-23T01:12:07;8.50;63.20
27114;DHT22;14648;49.730;8.614;2024-02-23T01:14:34;8.50;63.20
27114;DHT22;14648;49.730;8.614;2024-02-23T01:17:00;8.50;63.20
27114;DHT22;14648;49.730;8.614;2024-02-23T01:19:25;8.50;63.10
27114;DHT22;14648;49.730;8.614;2024-02-23T01:21:52;8.50;63.10
27114;DHT22;14648;49.730;8.614;2024-02-23T01:24:26;8.50;63.20
27114;DHT22;14648;49.730;8.614;2024-02-23T01:26:56;8.50;63.10
27114;DHT22;14648;49.730;8.614;2024-02-23T01:29:22;8.50;63.10
27114;DHT22;14648;49.730;8.614;2024-02-23T01:31:48;8.50;63.10
27114;DHT22;14648;49.730;8.614;2024-02-23T01:34:14;8.50;63.00
27114;DHT22;14648;49.730;8.614;2024-02-23T01:36:40;8.50;62.90
27114;DHT22;14648;49.730;8.614;2024-02-23T01:39:09;8.50;62.80
27114;DHT22;14648;49.730;8.614;2024-02-23T01:41:36;8.50;62.80
27114;DHT22;14648;49.730;8.614;2024-02-23T01:44:02;8.60;62.60
27114;DHT22;14648;49.730;8.614;2024-02-23T01:46:28;8.50;62.40
27114;DHT22;14648;49.730;8.614;2024-02-23T01:48:54;8.50;62.30
27114;DHT22;14648;49.730;8.614;2024-02-23T01:51:21;8.50;62.40
27114;DHT22;14648;49.730;8.614;2024-02-23T01:53:47;8.40;62.40
27114;DHT22;14648;49.730;8.614;2024-02-23T01:56:14;8.40;62.50
27114;DHT22;14648;49.730;8.614;2024-02-23T01:58:43;8.40;62.50
27114;DHT22;14648;49.730;8.614;2024-02-23T02:01:12;8.30;62.50
27114;DHT22;14648;49.730;8.614;2024-02-23T02:03:38;8.30;62.70
27114;DHT22;14648;49.730;8.614;2024-02-23T02:06:06;8.20;62.70
27114;DHT22;14648;49.730;8.614;2024-02-23T02:08:33;8.10;62.80
27114;DHT22;14648;49.730;8.614;2024-02-23T02:11:00;8.10;62.80
27114;DHT22;14648;49.730;8.614;2024-02-23T02:13:28;8.00;62.70
27114;DHT22;14648;49.730;8.614;2024-02-23T02:15:54;8.00;62.70
27114;DHT22;14648;49.730;8.614;2024-02-23T02:18:20;7.90;62.70
27114;DHT22;14648;49.730;8.614;2024-02-23T02:20:52;7.90;62.70
27114;DHT22;14648;49.730;8.614;2024-02-23T02:23:20;7.80;62.80
27114;DHT22;14648;49.730;8.614;2024-02-23T02:25:53;7.80;62.90
27114;DHT22;14648;49.730;8.614;2024-02-23T02:28:20;7.70;62.80
27114;DHT22;14648;49.730;8.614;2024-02-23T02:30:50;7.60;62.60
27114;DHT22;14648;49.730;8.614;2024-02-23T02:33:16;7.50;62.50
27114;DHT22;14648;49.730;8.614;2024-02-23T02:35:42;7.50;62.50
27114;DHT22;14648;49.730;8.614;2024-02-23T02:38:12;7.30;62.50
27114;DHT22;14648;49.730;8.614;2024-02-23T02:40:41;7.30;62.50
27114;DHT22;14648;49.730;8.614;2024-02-23T02:43:07;7.20;62.40
27114;DHT22;14648;49.730;8.614;2024-02-23T02:45:36;7.20;62.40
27114;DHT22;14648;49.730;8.614;2024-02-23T02:48:02;7.10;62.30
27114;DHT22;14648;49.730;8.614;2024-02-23T02:50:28;7.10;62.40
27114;DHT22;14648;49.730;8.614;2024-02-23T02:52:56;7.10;62.40
27114;DHT22;14648;49.730;8.614;2024-02-23T02:55:22;7.00;62.30
27114;DHT22;14648;49.730;8.614;2024-02-23T02:57:48;7.00;62.30
27114;DHT22;14648;49.730;8.614;2024-02-23T03:00:14;6.90;62.20
27114;DHT22;14648;49.730;8.614;2024-02-23T03:02:40;6.90;63.00
27114;DHT22;14648;49.730;8.614;2024-02-23T03:05:06;6.80;62.10
27114;DHT22;14648;49.730;8.614;2024-02-23T03:07:33;6.90;62.20
27114;DHT22;14648;49.730;8.614;2024-02-23T03:10:01;6.80;62.10
27114;DHT22;14648;49.730;8.614;2024-02-23T03:12:27;6.80;62.10
27114;DHT22;14648;49.730;8.614;2024-02-23T03:14:53;6.80;62.10
27114;DHT22;14648;49.730;8.614;2024-02-23T03:17:21;6.70;62.10
27114;DHT22;14648;49.730;8.614;2024-02-23T03:19:47;6.80;62.00
27114;DHT22;14648;49.730;8.614;2024-02-23T03:22:17;6.80;62.00
27114;DHT22;14648;49.730;8.614;2024-02-23T03:24:43;6.70;61.90
27114;DHT22;14648;49.730;8.614;2024-02-23T03:27:09;6.80;61.80
27114;DHT22;14648;49.730;8.614;2024-02-23T03:29:35;6.80;61.80
27114;DHT22;14648;49.730;8.614;2024-02-23T03:32:01;6.90;61.70
27114;DHT22;14648;49.730;8.614;2024-02-23T03:34:27;6.90;61.60
27114;DHT22;14648;49.730;8.614;2024-02-23T03:36:53;6.90;61.40
27114;DHT22;14648;49.730;8.614;2024-02-23T03:39:18;6.90;61.30
27114;DHT22;14648;49.730;8.614;2024-02-23T03:41:44;6.90;61.20
27114;DHT22;14648;49.730;8.614;2024-02-23T03:44:10;6.90;61.20
27114;DHT22;14648;49.730;8.614;2024-02-23T03:46:36;6.90;61.20
27114;DHT22;14648;49.730;8.614;2024-02-23T03:49:02;6.90;61.20
27114;DHT22;14648;49.730;8.614;2024-02-23T03:51:28;6.90;61.20
27114;DHT22;14648;49.730;8.614;2024-02-23T03:53:54;6.90;61.20
27114;DHT22;14648;49.730;8.614;2024-02-23T03:56:20;6.90;61.30
27114;DHT22;14648;49.730;8.614;2024-02-23T03:58:46;6.90;61.40
27114;DHT22;14648;49.730;8.614;2024-02-23T04:01:12;6.90;61.50
27114;DHT22;14648;49.730;8.614;2024-02-23T04:03:37;6.90;61.50
27114;DHT22;14648;49.730;8.614;2024-02-23T04:06:04;6.90;61.50
27114;DHT22;14648;49.730;8.614;2024-02-23T04:08:30;6.90;61.50
27114;DHT22;14648;49.730;8.614;2024-02-23T04:10:56;6.90;61.60
27114;DHT22;14648;49.730;8.614;2024-02-23T04:13:23;6.90;61.60
27114;DHT22;14648;49.730;8.614;2024-02-23T04:15:49;6.90;61.60
27114;DHT22;14648;49.730;8.614;2024-02-23T04:18:15;7.00;61.60
27114;DHT22;14648;49.730;8.614;2024-02-23T04:20:41;6.90;61.60
27114;DHT22;14648;49.730;8.614;2024-02-23T04:23:08;6.90;61.70
27114;DHT22;14648;49.730;8.614;2024-02-23T04:25:34;6.90;61.70
27114;DHT22;14648;49.730;8.614;2024-02-23T04:28:00;7.00;61.70
27114;DHT22;14648;49.730;8.614;2024-02-23T04:30:28;7.00;61.70
27114;DHT22;14648;49.730;8.614;2024-02-23T04:32:54;7.00;61.80
27114;DHT22;14648;49.730;8.614;2024-02-23T04:35:22;7.00;61.70
27114;DHT22;14648;49.730;8.614;2024-02-23T04:37:48;7.00;61.80
27114;DHT22;14648;49.730;8.614;2024-02-23T04:40:15;6.90;61.80
27114;DHT22;14648;49.730;8.614;2024-02-23T04:42:43;7.00;61.70
27114;DHT22;14648;49.730;8.614;2024-02-23T04:45:11;6.90;61.70
27114;DHT22;14648;49.730;8.614;2024-02-23T04:47:36;6.90;61.70
27114;DHT22;14648;49.730;8.614;2024-02-23T04:50:06;6.90;61.80
27114;DHT22;14648;49.730;8.614;2024-02-23T04:52:32;7.00;61.70
27114;DHT22;14648;49.730;8.614;2024-02-23T04:55:01;6.90;61.80
27114;DHT22;14648;49.730;8.614;2024-02-23T04:57:27;7.00;61.90
27114;DHT22;14648;49.730;8.614;2024-02-23T04:59:53;7.00;61.80
27114;DHT22;14648;49.730;8.614;2024-02-23T05:02:19;7.00;61.80
27114;DHT22;14648;49.730;8.614;2024-02-23T05:04:45;7.00;61.70
27114;DHT22;14648;49.730;8.614;2024-02-23T05:07:12;7.00;61.70
27114;DHT22;14648;49.730;8.614;2024-02-23T05:09:37;7.10;61.80
27114;DHT22;14648;49.730;8.614;2024-02-23T05:12:04;7.10;61.80
27114;DHT22;14648;49.730;8.614;2024-02-23T05:14:30;7.10;61.80
27114;DHT22;14648;49.730;8.614;2024-02-23T05:16:58;7.10;61.80
27114;DHT22;14648;49.730;8.614;2024-02-23T05:19:24;7.10;61.80
27114;DHT22;14648;49.730;8.614;2024-02-23T05:21:50;7.10;61.80
27114;DHT22;14648;49.730;8.614;2024-02-23T05:24:18;7.20;61.80
27114;DHT22;14648;49.730;8.614;2024-02-23T05:26:44;7.20;61.80
27114;DHT22;14648;49.730;8.614;2024-02-23T05:29:12;7.20;61.80
27114;DHT22;14648;49.730;8.614;2024-02-23T05:31:51;7.20;61.80
27114;DHT22;14648;49.730;8.614;2024-02-23T05:34:24;7.20;61.70
27114;DHT22;14648;49.730;8.614;2024-02-23T05:36:53;7.20;61.70
27114;DHT22;14648;49.730;8.614;2024-02-23T05:39:24;7.20;61.60
27114;DHT22;14648;49.730;8.614;2024-02-23T05:41:54;7.20;61.50
27114;DHT22;14648;49.730;8.614;2024-02-23T05:44:21;7.20;62.20
27114;DHT22;14648;49.730;8.614;2024-02-23T05:46:50;7.20;61.40
27114;DHT22;14648;49.730;8.614;2024-02-23T05:49:18;7.20;61.40
27114;DHT22;14648;49.730;8.614;2024-02-23T05:51:44;7.20;61.40
27114;DHT22;14648;49.730;8.614;2024-02-23T05:54:22;7.20;61.40
27114;DHT22;14648;49.730;8.614;2024-02-23T05:56:51;7.20;61.30
27114;DHT22;14648;49.730;8.614;2024-02-23T05:59:40;7.20;61.20
27114;DHT22;14648;49.730;8.614;2024-02-23T06:02:13;7.30;61.30
27114;DHT22;14648;49.730;8.614;2024-02-23T06:04:45;7.20;61.10
27114;DHT22;14648;49.730;8.614;2024-02-23T06:07:18;7.20;61.10
27114;DHT22;14648;49.730;8.614;2024-02-23T06:09:57;7.30;61.20
27114;DHT22;14648;49.730;8.614;2024-02-23T06:12:29;7.20;61.00
27114;DHT22;14648;49.730;8.614;2024-02-23T06:15:04;7.20;61.00
27114;DHT22;14648;49.730;8.614;2024-02-23T06:17:51;7.20;61.00
27114;DHT22;14648;49.730;8.614;2024-02-23T06:20:20;7.20;60.90
27114;DHT22;14648;49.730;8.614;2024-02-23T06:22:57;7.20;60.90
27114;DHT22;14648;49.730;8.614;2024-02-23T06:25:39;7.20;60.90
27114;DHT22;14648;49.730;8.614;2024-02-23T06:28:05;7.20;60.90
27114;DHT22;14648;49.730;8.614;2024-02-23T06:30:32;7.20;60.90
27114;DHT22;14648;49.730;8.614;2024-02-23T06:32:58;7.20;60.90
27114;DHT22;14648;49.730;8.614;2024-02-23T06:35:23;7.20;60.90
27114;DHT22;14648;49.730;8.614;2024-02-23T06:37:49;7.30;61.00
27114;DHT22;14648;49.730;8.614;2024-02-23T06:40:15;7.20;60.90
27114;DHT22;14648;49.730;8.614;2024-02-23T06:42:41;7.20;60.90
27114;DHT22;14648;49.730;8.614;2024-02-23T06:45:07;7.20;60.80
27114;DHT22;14648;49.730;8.614;2024-02-23T06:47:33;7.20;60.80
27114;DHT22;14648;49.730;8.614;2024-02-23T06:49:59;7.20;60.70
27114;DHT22;14648;49.730;8.614;2024-02-23T06:52:25;7.20;60.70
27114;DHT22;14648;49.730;8.614;2024-02-23T06:54:51;7.20;61.50
27114;DHT22;14648;49.730;8.614;2024-02-23T06:57:17;7.10;60.80
27114;DHT22;14648;49.730;8.614;2024-02-23T06:59:43;7.10;60.70
27114;DHT22;14648;49.730;8.614;2024-02-23T07:02:09;7.10;60.70
27114;DHT22;14648;49.730;8.614;2024-02-23T07:04:35;7.00;60.70
27114;DHT22;14648;49.730;8.614;2024-02-23T07:07:01;7.00;60.70
27114;DHT22;14648;49.730;8.614;2024-02-23T07:09:33;7.00;60.70
27114;DHT22;14648;49.730;8.614;2024-02-23T07:11:59;6.90;60.70
27114;DHT22;14648;49.730;8.614;2024-02-23T07:14:25;7.00;60.80
27114;DHT22;14648;49.730;8.614;2024-02-23T07:16:51;6.90;60.70
27114;DHT22;14648;49.730;8.614;2024-02-23T07:19:17;6.90;60.70
27114;DHT22;14648;49.730;8.614;2024-02-23T07:21:45;6.90;60.70
27114;DHT22;14648;49.730;8.614;2024-02-23T07:24:12;6.90;60.70
27114;DHT22;14648;49.730;8.614;2024-02-23T07:26:38;6.90;60.70
27114;DHT22;14648;49.730;8.614;2024-02-23T07:29:04;6.90;60.70
27114;DHT22;14648;49.730;8.614;2024-02-23T07:31:30;6.90;60.70
27114;DHT22;14648;49.730;8.614;2024-02-23T07:33:55;6.90;60.70
27114;DHT22;14648;49.730;8.614;2024-02-23T07:36:21;6.90;60.80
27114;DHT22;14648;49.730;8.614;2024-02-23T07:38:47;6.90;60.80
27114;DHT22;14648;49.730;8.614;2024-02-23T07:41:14;6.90;60.70
27114;DHT22;14648;49.730;8.614;2024-02-23T07:43:40;6.90;60.80
27114;DHT22;14648;49.730;8.614;2024-02-23T07:46:06;6.90;60.70
27114;DHT22;14648;49.730;8.614;2024-02-23T07:48:34;6.80;60.60
27114;DHT22;14648;49.730;8.614;2024-02-23T07:51:02;6.80;60.60
27114;DHT22;14648;49.730;8.614;2024-02-23T07:53:28;6.80;60.60
27114;DHT22;14648;49.730;8.614;2024-02-23T07:58:31;6.90;60.70
27114;DHT22;14648;49.730;8.614;2024-02-23T08:00:57;6.80;60.60
27114;DHT22;14648;49.730;8.614;2024-02-23T08:03:22;6.90;60.70
27114;DHT22;14648;49.730;8.614;2024-02-23T08:05:48;7.00;60.70
27114;DHT22;14648;49.730;8.614;2024-02-23T08:08:14;7.00;60.60
27114;DHT22;14648;49.730;8.614;2024-02-23T08:10:39;7.10;60.80
27114;DHT22;14648;49.730;8.614;2024-02-23T08:13:05;7.20;60.60
27114;DHT22;14648;49.730;8.614;2024-02-23T08:15:32;7.30;60.60
27114;DHT22;14648;49.730;8.614;2024-02-23T08:17:58;7.30;60.60
27114;DHT22;14648;49.730;8.614;2024-02-23T08:20:24;7.40;60.60
27114;DHT22;14648;49.730;8.614;2024-02-23T08:22:50;7.50;60.60
27114;DHT22;14648;49.730;8.614;2024-02-23T08:25:15;7.60;60.60
27114;DHT22;14648;49.730;8.614;2024-02-23T08:27:41;7.60;60.50
27114;DHT22;14648;49.730;8.614;2024-02-23T08:30:08;7.60;60.60
27114;DHT22;14648;49.730;8.614;2024-02-23T08:32:36;7.60;60.70
27114;DHT22;14648;49.730;8.614;2024-02-23T08:35:02;7.70;60.80
27114;DHT22;14648;49.730;8.614;2024-02-23T08:37:28;7.70;60.80
27114;DHT22;14648;49.730;8.614;2024-02-23T08:39:54;7.70;60.90
27114;DHT22;14648;49.730;8.614;2024-02-23T08:42:20;7.80;60.90
27114;DHT22;14648;49.730;8.614;2024-02-23T08:44:46;7.90;61.50
27114;DHT22;14648;49.730;8.614;2024-02-23T08:47:11;7.90;61.00
27114;DHT22;14648;49.730;8.614;2024-02-23T08:49:37;7.90;61.00
27114;DHT22;14648;49.730;8.614;2024-02-23T08:52:03;7.90;61.00
27114;DHT22;14648;49.730;8.614;2024-02-23T08:54:29;8.00;61.10
27114;DHT22;14648;49.730;8.614;2024-02-23T08:56:55;8.10;61.20
27114;DHT22;14648;49.730;8.614;2024-02-23T08:59:21;8.10;61.20
27114;DHT22;14648;49.730;8.614;2024-02-23T09:01:47;8.20;61.10
27114;DHT22;14648;49.730;8.614;2024-02-23T09:04:13;8.30;61.00
27114;DHT22;14648;49.730;8.614;2024-02-23T09:06:39;8.30;60.90
27114;DHT22;14648;49.730;8.614;2024-02-23T09:09:05;8.40;61.00
27114;DHT22;14648;49.730;8.614;2024-02-23T09:11:30;8.40;60.90
27114;DHT22;14648;49.730;8.614;2024-02-23T09:13:56;8.50;60.90
27114;DHT22;14648;49.730;8.614;2024-02-23T09:16:22;8.60;61.60
27114;DHT22;14648;49.730;8.614;2024-02-23T09:18:50;8.60;60.70
27114;DHT22;14648;49.730;8.614;2024-02-23T09:21:16;8.70;60.70
27114;DHT22;14648;49.730;8.614;2024-02-23T09:23:42;8.70;60.60
27114;DHT22;14648;49.730;8.614;2024-02-23T09:26:10;8.80;60.50
27114;DHT22;14648;49.730;8.614;2024-02-23T09:28:37;8.80;60.60
27114;DHT22;14648;49.730;8.614;2024-02-23T09:31:03;9.00;60.50
27114;DHT22;14648;49.730;8.614;2024-02-23T09:33:30;9.10;60.60
27114;DHT22;14648;49.730;8.614;2024-02-23T09:35:57;9.40;60.40
27114;DHT22;14648;49.730;8.614;2024-02-23T09:38:22;9.70;60.30
27114;DHT22;14648;49.730;8.614;2024-02-23T09:40:51;9.90;60.00
27114;DHT22;14648;49.730;8.614;2024-02-23T09:43:17;10.10;59.70
27114;DHT22;14648;49.730;8.614;2024-02-23T09:45:47;10.10;59.50
27114;DHT22;14648;49.730;8.614;2024-02-23T09:48:14;10.10;59.40
27114;DHT22;14648;49.730;8.614;2024-02-23T09:50:41;10.00;59.40
27114;DHT22;14648;49.730;8.614;2024-02-23T09:53:07;10.00;59.50
27114;DHT22;14648;49.730;8.614;2024-02-23T09:55:35;10.00;59.40
27114;DHT22;14648;49.730;8.614;2024-02-23T09:58:02;10.10;59.50
27114;DHT22;14648;49.730;8.614;2024-02-23T10:00:29;10.10;59.30
27114;DHT22;14648;49.730;8.614;2024-02-23T10:02:56;10.10;59.20
27114;DHT22;14648;49.730;8.614;2024-02-23T10:05:23;10.10;59.10
27114;DHT22;14648;49.730;8.614;2024-02-23T10:07:55;10.10;59.00
27114;DHT22;14648;49.730;8.614;2024-02-23T10:10:38;10.00;58.90
27114;DHT22;14648;49.730;8.614;2024-02-23T10:13:04;9.90;58.80
27114;DHT22;14648;49.730;8.614;2024-02-23T10:15:30;9.80;58.70
27114;DHT22;14648;49.730;8.614;2024-02-23T10:17:56;9.80;58.60
27114;DHT22;14648;49.730;8.614;2024-02-23T10:20:22;9.80;58.60
27114;DHT22;14648;49.730;8.614;2024-02-23T10:22:48;9.70;58.40
27114;DHT22;14648;49.730;8.614;2024-02-23T10:25:14;9.70;58.30
27114;DHT22;14648;49.730;8.614;2024-02-23T10:27:41;9.70;58.40
27114;DHT22;14648;49.730;8.614;2024-02-23T10:30:10;9.70;58.20
27114;DHT22;14648;49.730;8.614;2024-02-23T10:32:41;9.80;58.10
27114;DHT22;14648;49.730;8.614;2024-02-23T10:35:15;9.80;58.00
27114;DHT22;14648;49.730;8.614;2024-02-23T10:37:43;9.90;57.80
27114;DHT22;14648;49.730;8.614;2024-02-23T10:40:12;10.00;58.00
27114;DHT22;14648;49.730;8.614;2024-02-23T10:42:43;10.20;57.80
27114;DHT22;14648;49.730;8.614;2024-02-23T10:45:16;10.40;57.50
27114;DHT22;14648;49.730;8.614;2024-02-23T10:47:42;10.40;57.30
27114;DHT22;14648;49.730;8.614;2024-02-23T10:50:09;10.50;57.60
27114;DHT22;14648;49.730;8.614;2024-02-23T10:52:38;10.50;57.50
27114;DHT22;14648;49.730;8.614;2024-02-23T10:55:06;10.50;57.40
27114;DHT22;14648;49.730;8.614;2024-02-23T10:57:35;10.50;57.40
27114;DHT22;14648;49.730;8.614;2024-02-23T11:00:02;10.40;57.30
27114;DHT22;14648;49.730;8.614;2024-02-23T11:02:38;10.40;57.30
27114;DHT22;14648;49.730;8.614;2024-02-23T11:05:06;10.40;57.40
27114;DHT22;14648;49.730;8.614;2024-02-23T11:07:38;10.30;57.20
27114;DHT22;14648;49.730;8.614;2024-02-23T11:10:05;10.30;57.30
27114;DHT22;14648;49.730;8.614;2024-02-23T11:12:31;10.40;57.40
27114;DHT22;14648;49.730;8.614;2024-02-23T11:15:00;10.40;57.20
27114;DHT22;14648;49.730;8.614;2024-02-23T11:17:27;10.50;57.30
27114;DHT22;14648;49.730;8.614;2024-02-23T11:19:55;10.50;57.20
27114;DHT22;14648;49.730;8.614;2024-02-23T11:22:32;10.50;57.10
27114;DHT22;14648;49.730;8.614;2024-02-23T11:25:04;10.50;57.10
27114;DHT22;14648;49.730;8.614;2024-02-23T11:27:37;10.50;56.80
27114;DHT22;14648;49.730;8.614;2024-02-23T11:30:07;10.40;56.70
27114;DHT22;14648;49.730;8.614;2024-02-23T11:32:44;10.40;56.70
27114;DHT22;14648;49.730;8.614;2024-02-23T11:35:13;10.40;56.70
27114;DHT22;14648;49.730;8.614;2024-02-23T11:37:51;10.40;56.70
27114;DHT22;14648;49.730;8.614;2024-02-23T11:40:30;10.50;56.70
27114;DHT22;14648;49.730;8.614;2024-02-23T11:42:56;10.60;56.70
27114;DHT22;14648;49.730;8.614;2024-02-23T11:45:23;10.60;56.70
27114;DHT22;14648;49.730;8.614;2024-02-23T11:47:50;10.70;56.70
27114;DHT22;14648;49.730;8.614;2024-02-23T11:50:15;10.90;56.90
27114;DHT22;14648;49.730;8.614;2024-02-23T11:52:45;11.00;56.60
27114;DHT22;14648;49.730;8.614;2024-02-23T11:55:10;11.10;56.50
27114;DHT22;14648;49.730;8.614;2024-02-23T11:57:36;11.20;56.50
27114;DHT22;14648;49.730;8.614;2024-02-23T12:00:04;11.30;56.60
27114;DHT22;14648;49.730;8.614;2024-02-23T12:02:38;11.30;56.40
27114;DHT22;14648;49.730;8.614;2024-02-23T12:05:04;11.40;56.30
27114;DHT22;14648;49.730;8.614;2024-02-23T12:07:32;11.50;56.20
27114;DHT22;14648;49.730;8.614;2024-02-23T12:09:58;11.40;55.90
27114;DHT22;14648;49.730;8.614;2024-02-23T12:12:25;11.20;55.60
27114;DHT22;14648;49.730;8.614;2024-02-23T12:14:52;11.10;55.90
27114;DHT22;14648;49.730;8.614;2024-02-23T12:17:18;11.10;55.90
27114;DHT22;14648;49.730;8.614;2024-02-23T12:19:44;11.10;55.90
27114;DHT22;14648;49.730;8.614;2024-02-23T12:22:13;11.10;55.80
27114;DHT22;14648;49.730;8.614;2024-02-23T12:24:40;11.10;55.70
27114;DHT22;14648;49.730;8.614;2024-02-23T12:27:07;11.10;55.60
27114;DHT22;14648;49.730;8.614;2024-02-23T12:29:32;11.10;55.50
27114;DHT22;14648;49.730;8.614;2024-02-23T12:32:05;11.10;55.40
27114;DHT22;14648;49.730;8.614;2024-02-23T12:34:32;11.00;55.20
27114;DHT22;14648;49.730;8.614;2024-02-23T12:36:58;11.00;55.30
27114;DHT22;14648;49.730;8.614;2024-02-23T12:39:24;11.00;55.40
27114;DHT22;14648;49.730;8.614;2024-02-23T12:41:50;11.10;55.40
27114;DHT22;14648;49.730;8.614;2024-02-23T12:44:16;11.10;55.40
27114;DHT22;14648;49.730;8.614;2024-02-23T12:46:42;11.10;55.40
27114;DHT22;14648;49.730;8.614;2024-02-23T12:49:08;11.10;55.20
27114;DHT22;14648;49.730;8.614;2024-02-23T12:51:33;11.10;55.10
27114;DHT22;14648;49.730;8.614;2024-02-23T12:54:00;11.10;55.10
27114;DHT22;14648;49.730;8.614;2024-02-23T12:56:25;11.10;55.10
27114;DHT22;14648;49.730;8.614;2024-02-23T12:58:52;11.00;54.80
27114;DHT22;14648;49.730;8.614;2024-02-23T13:01:19;10.80;54.70
27114;DHT22;14648;49.730;8.614;2024-02-23T13:03:45;10.60;54.90
27114;DHT22;14648;49.730;8.614;2024-02-23T13:06:11;10.50;55.00
27114;DHT22;14648;49.730;8.614;2024-02-23T13:08:36;10.30;54.90
27114;DHT22;14648;49.730;8.614;2024-02-23T13:11:04;10.10;55.20
27114;DHT22;14648;49.730;8.614;2024-02-23T13:13:30;9.90;55.50
27114;DHT22;14648;49.730;8.614;2024-02-23T13:15:56;9.90;55.80
27114;DHT22;14648;49.730;8.614;2024-02-23T13:18:22;10.00;56.00
27114;DHT22;14648;49.730;8.614;2024-02-23T13:20:48;10.10;56.00
27114;DHT22;14648;49.730;8.614;2024-02-23T13:23:14;10.20;56.20
27114;DHT22;14648;49.730;8.614;2024-02-23T13:25:41;10.40;56.10
27114;DHT22;14648;49.730;8.614;2024-02-23T13:28:08;10.60;56.20
27114;DHT22;14648;49.730;8.614;2024-02-23T13:30:35;10.70;56.10
27114;DHT22;14648;49.730;8.614;2024-02-23T13:33:01;10.80;56.20
27114;DHT22;14648;49.730;8.614;2024-02-23T13:35:27;10.90;57.00
27114;DHT22;14648;49.730;8.614;2024-02-23T13:37:53;11.00;56.40
27114;DHT22;14648;49.730;8.614;2024-02-23T13:40:20;11.20;56.60
27114;DHT22;14648;49.730;8.614;2024-02-23T13:42:46;11.40;56.50
27114;DHT22;14648;49.730;8.614;2024-02-23T13:45:16;11.50;56.30
27114;DHT22;14648;49.730;8.614;2024-02-23T13:47:43;11.50;56.20
27114;DHT22;14648;49.730;8.614;2024-02-23T13:50:10;11.40;55.90
27114;DHT22;14648;49.730;8.614;2024-02-23T13:52:37;11.20;55.90
27114;DHT22;14648;49.730;8.614;2024-02-23T13:55:02;11.10;55.90
27114;DHT22;14648;49.730;8.614;2024-02-23T13:57:28;11.00;55.80
27114;DHT22;14648;49.730;8.614;2024-02-23T13:59:54;11.00;55.90
27114;DHT22;14648;49.730;8.614;2024-02-23T14:02:26;10.90;55.70
27114;DHT22;14648;49.730;8.614;2024-02-23T14:04:59;10.80;55.50
27114;DHT22;14648;49.730;8.614;2024-02-23T14:07:27;10.80;55.50
27114;DHT22;14648;49.730;8.614;2024-02-23T14:09:53;10.70;55.50
27114;DHT22;14648;49.730;8.614;2024-02-23T14:12:19;10.60;55.40
27114;DHT22;14648;49.730;8.614;2024-02-23T14:14:44;10.50;55.50
27114;DHT22;14648;49.730;8.614;2024-02-23T14:17:10;10.40;55.30
27114;DHT22;14648;49.730;8.614;2024-02-23T14:19:36;10.40;55.40
27114;DHT22;14648;49.730;8.614;2024-02-23T14:22:02;10.30;55.40
27114;DHT22;14648;49.730;8.614;2024-02-23T14:24:27;10.20;55.40
27114;DHT22;14648;49.730;8.614;2024-02-23T14:26:53;10.20;55.60
27114;DHT22;14648;49.730;8.614;2024-02-23T14:29:19;10.10;55.70
27114;DHT22;14648;49.730;8.614;2024-02-23T14:31:44;10.00;55.80
27114;DHT22;14648;49.730;8.614;2024-02-23T14:34:10;10.00;55.90
27114;DHT22;14648;49.730;8.614;2024-02-23T14:36:36;9.90;56.00
27114;DHT22;14648;49.730;8.614;2024-02-23T14:39:02;9.80;56.10
27114;DHT22;14648;49.730;8.614;2024-02-23T14:41:30;9.70;56.10
27114;DHT22;14648;49.730;8.614;2024-02-23T14:43:55;9.50;56.20
27114;DHT22;14648;49.730;8.614;2024-02-23T14:46:21;9.50;56.30
27114;DHT22;14648;49.730;8.614;2024-02-23T14:48:47;9.40;56.50
27114;DHT22;14648;49.730;8.614;2024-02-23T14:51:15;9.40;56.50
27114;DHT22;14648;49.730;8.614;2024-02-23T14:53:41;9.30;56.60
27114;DHT22;14648;49.730;8.614;2024-02-23T14:56:07;9.40;56.80
27114;DHT22;14648;49.730;8.614;2024-02-23T14:58:33;9.60;57.00
27114;DHT22;14648;49.730;8.614;2024-02-23T15:00:59;9.70;57.00
27114;DHT22;14648;49.730;8.614;2024-02-23T15:03:25;9.80;56.80
27114;DHT22;14648;49.730;8.614;2024-02-23T15:05:51;10.00;56.90
27114;DHT22;14648;49.730;8.614;2024-02-23T15:08:17;10.10;57.10
27114;DHT22;14648;49.730;8.614;2024-02-23T15:10:43;10.30;57.10
27114;DHT22;14648;49.730;8.614;2024-02-23T15:13:08;10.40;57.00
27114;DHT22;14648;49.730;8.614;2024-02-23T15:15:34;10.40;56.90
27114;DHT22;14648;49.730;8.614;2024-02-23T15:18:01;10.40;56.90
27114;DHT22;14648;49.730;8.614;2024-02-23T15:20:27;10.30;57.00
27114;DHT22;14648;49.730;8.614;2024-02-23T15:22:53;10.20;56.90
27114;DHT22;14648;49.730;8.614;2024-02-23T15:25:19;10.10;56.90
27114;DHT22;14648;49.730;8.614;2024-02-23T15:27:45;10.00;57.00
27114;DHT22;14648;49.730;8.614;2024-02-23T15:30:11;10.00;57.10
27114;DHT22;14648;49.730;8.614;2024-02-23T15:32:37;10.10;57.20
27114;DHT22;14648;49.730;8.614;2024-02-23T15:35:03;10.10;57.10
27114;DHT22;14648;49.730;8.614;2024-02-23T15:37:29;10.10;57.00
27114;DHT22;14648;49.730;8.614;2024-02-23T15:39:55;10.20;56.80
27114;DHT22;14648;49.730;8.614;2024-02-23T15:42:21;10.10;56.60